MMVA/VSA METAR and TAF weather

Enter ICAO airport designator
Station Type Date Time Source
MMVA METAR 2019/08/19 02:41 UTC NOAA

MMVA 190241Z 00000KT 6SM SKC 27/22 A2985 RMK SLP105 52023 900 HZY


Station Type Date Time Source
MMVA Decoded METAR 2019/08/19 02:41 UTC NOAA

Station name not available
Aug 18, 2019 - 10:41 PM EDT / 2019.08.19 0241 UTC
Wind: Calm:0
Visibility: 6 mile(s):0
Sky conditions: clear
Temperature: 80 F (27 C)
Dew Point: 71 F (22 C)
Relative Humidity: 74%
Pressure (altimeter): 29.85 in. Hg (1010 hPa)
Pressure tendency: 0.07 inches (2.3 hPa) higher than three hours ago
ob: MMVA 190241Z 00000KT 6SM SKC 27/22 A2985 RMK SLP105 52023 900 HZY
cycle: 2

Station Type Date Time Source
MMVA TAF 2019/08/19 06:48 UTC NOAA

TAF MMVA 190541Z 1906/2006 00000KT 5SM HZ SKC
TEMPO 1910/1914 2SM BR BKN010
FM191800 12010KT 6SM HZ BKN020
TEMPO 1922/2002 5SM TSRA BKN020CB
FM200300 06005KT 6SM HZ SCT015 BKN200

Example: see airport list